Time;durP1;ratioP1;P1;durP2;ratioP2;P2;SDS_P1;SDS_P2;PMS_P1;PMS_P2;Temp;Humidity;BMP_temperature;BMP_pressure;BME280_temperature;BME280_humidity;BME280_pressure;Samples;Min_cycle;Max_cycle;Signal;HPM_P1;HPM_P2
2021/11/05 00:01:03;;;;;;;56.35;21.60;;;;;;;6.81;80.50;99891.88;4954737;28;20526;-73
2021/11/05 00:03:29;;;;;;;70.00;24.45;;;;;;;6.84;80.56;99896.00;4959967;28;20464;-73
2021/11/05 00:05:55;;;;;;;70.75;23.77;;;;;;;6.85;80.71;99890.31;4959427;28;20072;-73
2021/11/05 00:08:23;;;;;;;55.92;21.35;;;;;;;6.88;80.67;99881.69;4971274;28;20058;-73
2021/11/05 00:10:50;;;;;;;60.90;19.77;;;;;;;6.93;80.81;99867.31;4968826;28;20469;-74
2021/11/05 00:13:17;;;;;;;47.78;18.73;;;;;;;6.95;80.84;99863.28;4946018;28;20089;-74
2021/11/05 00:15:43;;;;;;;50.90;20.42;;;;;;;6.98;80.88;99861.97;4971848;28;20070;-73
2021/11/05 00:18:09;;;;;;;60.55;18.80;;;;;;;6.91;80.81;99839.56;4980469;28;20057;-73
2021/11/05 00:20:36;;;;;;;48.88;18.48;;;;;;;7.03;80.85;99859.31;4986256;28;20101;-74
2021/11/05 00:23:02;;;;;;;49.07;18.60;;;;;;;7.01;80.95;99847.88;4939139;28;20054;-74
2021/11/05 00:25:30;;;;;;;48.17;19.10;;;;;;;7.05;80.87;99849.03;4967316;28;20067;-73
2021/11/05 00:27:56;;;;;;;48.40;18.50;;;;;;;7.13;80.92;99846.97;4947768;28;20053;-74
2021/11/05 00:30:22;;;;;;;60.75;19.20;;;;;;;7.15;80.96;99847.53;4938568;28;20043;-73
2021/11/05 00:32:49;;;;;;;58.63;19.77;;;;;;;7.14;80.86;99854.84;4969991;28;20047;-74
2021/11/05 00:35:15;;;;;;;54.35;19.17;;;;;;;7.18;80.99;99850.56;4938348;28;20074;-74
2021/11/05 00:37:42;;;;;;;62.65;21.90;;;;;;;7.21;81.03;99849.22;4968089;28;20047;-73
2021/11/05 00:40:11;;;;;;;65.53;20.60;;;;;;;7.21;81.23;99855.50;4952899;28;20058;-74
2021/11/05 00:42:38;;;;;;;57.80;19.95;;;;;;;7.22;81.20;99859.03;4960358;28;20311;-73
2021/11/05 00:45:04;;;;;;;;;;;;;;;7.20;81.41;99859.31;4935539;29;20055;-72
2021/11/05 00:47:31;;;;;;;50.92;21.45;;;;;;;7.21;81.36;99855.50;4969559;28;20354;-73
2021/11/05 00:49:57;;;;;;;51.38;21.38;;;;;;;7.20;81.59;99856.59;4958800;28;20189;-73
2021/11/05 00:52:23;;;;;;;54.25;21.65;;;;;;;7.19;81.63;99844.06;4972541;28;20105;-73
2021/11/05 00:54:49;;;;;;;72.72;25.48;;;;;;;7.22;81.77;99850.88;4967073;28;20046;-73
2021/11/05 00:57:15;;;;;;;95.82;30.00;;;;;;;7.20;82.01;99847.59;4992963;28;20077;-74
2021/11/05 00:59:43;;;;;;;94.13;33.28;;;;;;;7.25;81.93;99847.66;4966899;28;20063;-74
2021/11/05 01:02:09;;;;;;;77.55;28.38;;;;;;;7.28;82.39;99849.06;4973482;28;20047;-72
2021/11/05 01:04:35;;;;;;;86.55;29.65;;;;;;;7.30;82.39;99849.63;4953948;28;20074;-74
2021/11/05 01:07:02;;;;;;;136.35;40.33;;;;;;;7.31;82.46;99849.38;4972308;28;20097;-74
2021/11/05 01:09:28;;;;;;;166.15;47.38;;;;;;;7.34;82.60;99858.94;4938776;28;20039;-74
2021/11/05 01:11:54;;;;;;;155.50;43.60;;;;;;;7.40;82.59;99848.94;4954962;28;20051;-74
2021/11/05 01:14:21;;;;;;;171.55;47.65;;;;;;;7.43;82.45;99832.13;4941629;28;20050;-74
2021/11/05 01:16:49;;;;;;;190.40;52.50;;;;;;;7.46;82.63;99824.25;4958631;28;20051;-74
2021/11/05 01:19:15;;;;;;;113.28;37.78;;;;;;;7.48;82.69;99821.28;4955778;28;20062;-74
2021/11/05 01:21:41;;;;;;;96.35;34.22;;;;;;;7.48;82.71;99819.38;4956264;28;20418;-74
2021/11/05 01:24:07;;;;;;;72.78;27.35;;;;;;;7.54;82.70;99808.56;4956222;28;20050;-74
2021/11/05 01:26:33;;;;;;;66.53;26.17;;;;;;;7.52;82.93;99787.88;4974834;28;20419;-74
2021/11/05 01:28:59;;;;;;;70.03;26.20;;;;;;;7.57;82.77;99783.56;4956168;28;20065;-74
2021/11/05 01:31:25;;;;;;;64.93;24.23;;;;;;;7.58;82.81;99780.59;4956554;28;20043;-74
2021/11/05 01:33:57;;;;;;;64.10;25.63;;;;;;;7.60;82.81;99783.06;4975519;28;20081;-73
2021/11/05 01:36:24;;;;;;;66.45;25.00;;;;;;;7.58;82.81;99774.31;4974203;28;20046;-73
2021/11/05 01:38:50;;;;;;;63.45;25.55;;;;;;;7.62;82.92;99787.19;4973868;28;20097;-74
2021/11/05 01:41:16;;;;;;;77.03;25.83;;;;;;;7.62;82.96;99789.91;4949189;28;20145;-74
2021/11/05 01:43:45;;;;;;;78.07;26.17;;;;;;;7.65;83.18;99799.47;4973749;28;20081;-74
2021/11/05 01:46:11;;;;;;;69.00;26.50;;;;;;;7.65;83.30;99796.75;4974120;28;20101;-73
2021/11/05 01:48:37;;;;;;;63.20;24.15;;;;;;;7.70;83.41;99806.84;4941050;28;20051;-72
2021/11/05 01:51:05;;;;;;;67.78;25.13;;;;;;;7.68;83.37;99806.28;4954394;28;20042;-74
2021/11/05 01:53:32;;;;;;;83.90;29.08;;;;;;;7.69;83.44;99797.88;4976217;28;20055;-73
2021/11/05 01:55:58;;;;;;;80.87;29.17;;;;;;;7.66;83.79;99790.22;4972781;28;20523;-74
2021/11/05 01:58:25;;;;;;;78.53;28.48;;;;;;;7.74;83.62;99797.09;4938753;28;20722;-73
2021/11/05 02:00:52;;;;;;;75.03;27.23;;;;;;;7.64;83.57;99779.56;4972466;28;20133;-73
2021/11/05 02:03:18;;;;;;;65.78;26.25;;;;;;;7.79;83.76;99787.06;4974480;28;20051;-74
2021/11/05 02:05:46;;;;;;;74.05;26.80;;;;;;;7.82;83.57;99779.50;4973212;28;20046;-74
2021/11/05 02:08:17;;;;;;;66.70;25.00;;;;;;;7.78;83.78;99768.28;4969998;28;20363;-74
2021/11/05 02:10:44;;;;;;;73.10;27.55;;;;;;;7.80;83.80;99769.69;4973982;28;20515;-74
2021/11/05 02:13:13;;;;;;;70.70;25.33;;;;;;;7.81;83.94;99773.22;4955644;28;20051;-74
2021/11/05 02:15:39;;;;;;;68.72;26.95;;;;;;;7.78;84.02;99785.44;4954632;28;20070;-74
2021/11/05 02:18:07;;;;;;;78.35;26.50;;;;;;;7.82;84.09;99780.28;4969572;28;20490;-75
2021/11/05 02:20:34;;;;;;;70.63;28.00;;;;;;;7.82;84.38;99774.84;4972409;28;20046;-74
2021/11/05 02:23:04;;;;;;;75.78;27.75;;;;;;;7.74;84.57;99753.56;4973082;28;20389;-75
2021/11/05 02:25:30;;;;;;;71.40;27.25;;;;;;;7.84;84.43;99778.13;4953959;28;20389;-74
2021/11/05 02:27:56;;;;;;;74.10;26.80;;;;;;;7.85;84.42;99765.34;4972238;28;20050;-73
2021/11/05 02:30:22;;;;;;;76.72;28.75;;;;;;;7.85;84.42;99759.91;4955926;28;20150;-74
2021/11/05 02:32:48;;;;;;;80.45;27.20;;;;;;;7.89;84.55;99763.75;4973155;28;20051;-74
2021/11/05 02:35:16;;;;;;;82.00;27.90;;;;;;;7.89;84.62;99767.31;4972921;28;20043;-73
2021/11/05 02:37:43;;;;;;;79.15;27.75;;;;;;;7.90;84.74;99763.50;4973163;28;20054;-74
2021/11/05 02:40:12;;;;;;;83.93;28.27;;;;;;;7.93;84.71;99749.38;4973155;28;20072;-74
2021/11/05 02:42:38;;;;;;;73.78;27.30;;;;;;;7.94;84.79;99742.84;4973466;28;20085;-74
2021/11/05 02:45:06;;;;;;;70.90;26.27;;;;;;;7.94;84.64;99726.50;4965460;28;20047;-72
2021/11/05 02:47:32;;;;;;;73.80;26.08;;;;;;;7.97;84.85;99724.34;4970751;28;20049;-74
2021/11/05 02:50:00;;;;;;;79.30;27.90;;;;;;;7.96;84.74;99729.00;4955292;28;20051;-73
2021/11/05 02:52:27;;;;;;;82.80;25.92;;;;;;;7.99;84.84;99722.19;4950763;28;20057;-74
2021/11/05 02:54:53;;;;;;;73.03;25.77;;;;;;;8.03;84.80;99715.13;4972210;28;20419;-73
2021/11/05 02:57:21;;;;;;;76.05;27.92;;;;;;;7.98;84.71;99705.03;4970377;28;20047;-74
2021/11/05 02:59:47;;;;;;;75.93;25.95;;;;;;;8.04;84.75;99703.16;4953739;28;20039;-74
2021/11/05 03:02:13;;;;;;;84.82;28.02;;;;;;;8.03;84.82;99704.25;4970991;28;20066;-73
2021/11/05 03:04:40;;;;;;;74.28;26.70;;;;;;;8.09;84.80;99703.22;4957461;28;20081;-74
2021/11/05 03:07:08;;;;;;;81.20;27.10;;;;;;;8.12;84.85;99704.56;4963160;28;20533;-75
2021/11/05 03:09:36;;;;;;;80.72;28.05;;;;;;;8.09;84.80;99692.31;4968722;28;20070;-74
2021/11/05 03:12:04;;;;;;;83.60;27.88;;;;;;;8.02;85.00;99683.53;4973948;28;20051;-75
2021/11/05 03:14:31;;;;;;;81.00;27.67;;;;;;;8.15;84.95;99695.91;4971217;28;20077;-73
2021/11/05 03:16:58;;;;;;;83.15;28.60;;;;;;;8.11;85.03;99694.75;4970823;28;20492;-75
2021/11/05 03:19:25;;;;;;;87.20;31.52;;;;;;;8.20;84.99;99693.22;4969459;28;20053;-75
2021/11/05 03:21:51;;;;;;;88.28;29.20;;;;;;;8.22;85.04;99693.75;4970633;28;20085;-74
2021/11/05 03:24:18;;;;;;;81.87;29.17;;;;;;;8.22;85.20;99693.75;4961653;28;20526;-75
2021/11/05 03:26:45;;;;;;;96.43;31.73;;;;;;;8.25;85.07;99698.69;4965559;28;20516;-75
2021/11/05 03:29:11;;;;;;;94.65;32.25;;;;;;;8.26;85.36;99696.78;4970176;28;20462;-74
2021/11/05 03:31:39;;;;;;;96.03;31.80;;;;;;;8.29;85.30;99694.38;4969029;28;20074;-74
2021/11/05 03:34:05;;;;;;;92.75;29.33;;;;;;;8.30;85.24;99696.00;4971687;28;20042;-75
2021/11/05 03:36:31;;;;;;;100.47;33.55;;;;;;;8.36;85.23;99692.22;4971811;28;20539;-73
2021/11/05 03:38:58;;;;;;;93.78;33.70;;;;;;;8.37;85.28;99695.78;4972001;28;20541;-74
2021/11/05 03:41:24;;;;;;;120.68;38.92;;;;;;;8.37;85.44;99688.41;4953682;28;20054;-72
2021/11/05 03:43:50;;;;;;;103.75;36.15;;;;;;;8.38;85.38;99670.19;4972064;28;20047;-73
2021/11/05 03:46:16;;;;;;;112.55;33.72;;;;;;;8.42;85.36;99674.00;4953085;28;20130;-73
2021/11/05 03:48:43;;;;;;;100.75;33.17;;;;;;;8.46;85.30;99660.69;4953700;28;20077;-73
2021/11/05 03:51:10;;;;;;;;;;;;;;;8.46;85.17;99669.66;4969913;28;20047;-72
2021/11/05 03:53:37;;;;;;;91.83;31.23;;;;;;;8.44;85.28;99666.38;4976646;28;19932;-73
2021/11/05 03:56:04;;;;;;;104.53;33.87;;;;;;;8.42;85.20;99670.47;4970116;28;20045;-71
2021/11/05 03:58:30;;;;;;;86.32;30.35;;;;;;;8.45;85.26;99678.13;4955029;28;20077;-72
2021/11/05 04:00:57;;;;;;;103.13;32.33;;;;;;;8.44;85.28;99671.03;4954667;28;20074;-73
2021/11/05 04:03:23;;;;;;;103.13;32.08;;;;;;;8.44;85.30;99662.88;4955172;28;20053;-72
2021/11/05 04:05:51;;;;;;;92.50;30.90;;;;;;;8.51;85.21;99677.09;4969728;28;20080;-73
2021/11/05 04:08:17;;;;;;;95.63;32.08;;;;;;;8.51;85.09;99663.47;4937483;28;20061;-73
2021/11/05 04:10:43;;;;;;;102.32;33.83;;;;;;;8.53;85.17;99680.38;4951996;28;20516;-73
2021/11/05 04:13:09;;;;;;;96.35;32.17;;;;;;;8.55;85.30;99669.22;4974381;28;20132;-73
2021/11/05 04:15:36;;;;;;;95.65;31.10;;;;;;;8.55;85.14;99656.41;4953073;28;20050;-73
2021/11/05 04:18:02;;;;;;;94.95;33.88;;;;;;;8.59;85.22;99653.97;4970475;28;20463;-72
2021/11/05 04:20:28;;;;;;;87.38;31.40;;;;;;;8.62;85.06;99648.81;4953406;28;20578;-73
2021/11/05 04:22:56;;;;;;;93.47;32.10;;;;;;;8.64;84.86;99651.25;4937499;28;20051;-73
2021/11/05 04:25:22;;;;;;;91.88;33.72;;;;;;;8.65;84.96;99640.09;4968237;28;20046;-73
2021/11/05 04:27:49;;;;;;;89.03;31.55;;;;;;;8.68;84.64;99629.75;4971175;28;20065;-71
2021/11/05 04:30:15;;;;;;;83.07;30.77;;;;;;;8.67;84.58;99637.13;4954279;28;20419;-71
2021/11/05 04:32:42;;;;;;;91.05;31.45;;;;;;;8.68;84.68;99629.75;4972448;28;20061;-70
2021/11/05 04:35:09;;;;;;;88.95;33.63;;;;;;;8.68;84.62;99627.03;4936567;28;20058;-71
2021/11/05 04:37:36;;;;;;;83.40;33.50;;;;;;;8.69;84.45;99620.47;4954219;28;20054;-71
2021/11/05 04:40:04;;;;;;;95.57;32.88;;;;;;;8.69;84.53;99620.47;4951551;28;20154;-70
2021/11/05 04:42:31;;;;;;;89.00;32.92;;;;;;;8.71;84.39;99624.59;4970383;28;20047;-70
2021/11/05 04:44:57;;;;;;;99.47;33.22;;;;;;;8.63;84.28;99600.56;4970782;28;20101;-71
2021/11/05 04:47:23;;;;;;;83.25;31.65;;;;;;;8.73;84.24;99611.50;4970481;28;20130;-70
2021/11/05 04:49:49;;;;;;;86.18;34.38;;;;;;;8.72;84.23;99606.31;4969213;28;20493;-69
2021/11/05 04:52:15;;;;;;;97.75;33.70;;;;;;;8.70;84.20;99613.94;4969339;28;20141;-70
2021/11/05 04:54:41;;;;;;;90.68;34.28;;;;;;;8.74;84.15;99615.88;4971016;28;20516;-70
2021/11/05 04:57:11;;;;;;;88.47;34.17;;;;;;;8.71;83.97;99615.56;4963915;28;20397;-70
2021/11/05 04:59:38;;;;;;;98.20;33.85;;;;;;;8.76;83.93;99608.25;4978584;28;20507;-70
2021/11/05 05:02:05;;;;;;;89.43;32.35;;;;;;;8.74;83.93;99599.50;4969204;28;20462;-70
2021/11/05 05:04:31;;;;;;;94.07;33.50;;;;;;;8.74;83.80;99617.75;4953923;28;20047;-68
2021/11/05 05:06:57;;;;;;;85.88;32.38;;;;;;;8.75;83.54;99603.88;4969771;28;20061;-69
2021/11/05 05:09:23;;;;;;;91.43;34.35;;;;;;;8.78;83.74;99603.34;4970841;28;20053;-70
2021/11/05 05:11:49;;;;;;;96.18;35.08;;;;;;;8.79;83.57;99625.97;4968764;28;20145;-70
2021/11/05 05:14:17;;;;;;;87.47;34.03;;;;;;;8.80;83.64;99620.25;4950227;28;20133;-70
2021/11/05 05:16:43;;;;;;;91.45;34.13;;;;;;;8.80;83.41;99614.78;4967235;28;20065;-70
2021/11/05 05:19:09;;;;;;;89.88;33.88;;;;;;;8.80;83.25;99619.44;4970208;28;20055;-69
2021/11/05 05:21:35;;;;;;;83.28;33.28;;;;;;;8.83;83.19;99618.91;4970053;28;20057;-70
2021/11/05 05:24:02;;;;;;;93.20;35.65;;;;;;;8.81;83.39;99618.34;4972482;28;20050;-70
2021/11/05 05:26:29;;;;;;;88.88;34.63;;;;;;;8.83;83.16;99594.38;4967777;28;20039;-69
2021/11/05 05:28:55;;;;;;;80.40;35.90;;;;;;;8.86;83.14;99598.47;4970456;28;20038;-68
2021/11/05 05:31:23;;;;;;;99.22;36.97;;;;;;;8.86;82.98;99588.38;4968768;28;20487;-68
2021/11/05 05:33:48;;;;;;;;;;;;;;;8.87;82.83;99584.56;4971729;28;20523;-69
2021/11/05 05:36:14;;;;;;;94.93;35.47;;;;;;;8.87;82.65;99584.56;4954640;28;19930;-69
2021/11/05 05:38:43;;;;;;;91.60;36.15;;;;;;;8.86;82.88;99585.63;4978559;28;20057;-68
2021/11/05 05:41:11;;;;;;;92.68;35.33;;;;;;;8.89;82.51;99576.91;4959501;28;20039;-68
2021/11/05 05:43:37;;;;;;;99.57;34.83;;;;;;;8.89;82.49;99579.66;4954528;28;20055;-68
2021/11/05 05:46:03;;;;;;;86.53;33.67;;;;;;;8.89;82.47;99579.66;4968625;28;20513;-70
2021/11/05 05:48:30;;;;;;;82.25;34.38;;;;;;;8.90;82.39;99567.69;4975032;28;20499;-70
2021/11/05 05:50:56;;;;;;;;;;;;;;;8.93;82.48;99577.22;4973133;28;20047;-69
2021/11/05 05:53:22;;;;;;;77.53;32.55;;;;;;;8.92;82.30;99573.69;4973451;28;20306;-69
2021/11/05 05:55:48;;;;;;;81.72;34.95;;;;;;;8.92;82.01;99579.13;4968273;28;20516;-69
2021/11/05 05:58:14;;;;;;;85.47;35.92;;;;;;;8.94;82.03;99592.47;4972393;28;20074;-70
2021/11/05 06:00:40;;;;;;;93.45;34.85;;;;;;;8.96;82.01;99581.31;4972201;28;20077;-69
2021/11/05 06:03:06;;;;;;;90.18;35.90;;;;;;;8.96;82.05;99579.38;4965432;28;20097;-69
2021/11/05 06:05:34;;;;;;;93.13;36.85;;;;;;;8.93;82.04;99561.69;4952943;28;20039;-69
2021/11/05 06:08:00;;;;;;;;;;;;;;;8.98;81.98;99568.22;4972354;28;20350;-69
2021/11/05 06:10:26;;;;;;;87.53;34.35;;;;;;;8.95;81.79;99553.22;4973336;28;19973;-70
2021/11/05 06:12:52;;;;;;;79.30;32.92;;;;;;;8.98;81.85;99573.69;4955632;28;20508;-69
2021/11/05 06:15:18;;;;;;;81.72;33.55;;;;;;;8.99;81.73;99576.16;4966528;28;20045;-68
2021/11/05 06:17:44;;;;;;;80.20;33.67;;;;;;;9.02;81.70;99580.22;4975758;28;20403;-69
2021/11/05 06:20:11;;;;;;;91.45;37.33;;;;;;;8.98;81.61;99571.78;4971948;28;20475;-69
2021/11/05 06:22:38;;;;;;;77.30;33.67;;;;;;;8.99;81.36;99567.97;4970896;28;20043;-69
2021/11/05 06:25:05;;;;;;;84.40;33.17;;;;;;;9.00;81.35;99585.13;4956688;28;20045;-70
2021/11/05 06:27:31;;;;;;;99.60;34.65;;;;;;;9.03;81.35;99606.41;4954516;28;20109;-71
2021/11/05 06:29:57;;;;;;;85.97;33.85;;;;;;;9.04;81.36;99600.69;4970912;28;20768;-71
2021/11/05 06:32:24;;;;;;;92.57;35.88;;;;;;;9.05;81.05;99590.59;4961029;28;20500;-70
2021/11/05 06:34:50;;;;;;;86.13;35.17;;;;;;;9.07;81.01;99594.69;4972821;28;20038;-70
2021/11/05 06:37:16;;;;;;;89.90;36.25;;;;;;;9.05;80.78;99583.25;4955754;28;20074;-70
2021/11/05 06:39:44;;;;;;;78.45;33.65;;;;;;;9.07;80.65;99593.88;4955257;28;20050;-70
2021/11/05 06:42:13;;;;;;;91.60;35.03;;;;;;;9.11;80.28;99594.16;4954967;28;20053;-71
2021/11/05 06:44:39;;;;;;;86.20;36.13;;;;;;;9.14;80.37;99585.44;4970672;28;20046;-69
2021/11/05 06:47:05;;;;;;;85.63;37.13;;;;;;;9.11;80.32;99567.69;4977937;28;20756;-70
2021/11/05 06:49:31;;;;;;;93.35;37.35;;;;;;;9.17;80.34;99577.53;4972703;28;20135;-69
2021/11/05 06:51:57;;;;;;;90.75;36.08;;;;;;;9.17;80.09;99569.34;4954719;28;20173;-69
2021/11/05 06:54:23;;;;;;;85.75;34.30;;;;;;;9.18;80.05;99560.06;4967679;28;20055;-70
2021/11/05 06:56:51;;;;;;;89.93;33.83;;;;;;;9.13;79.87;99560.06;4953236;28;20050;-70
2021/11/05 06:59:17;;;;;;;82.53;34.63;;;;;;;9.18;79.77;99567.44;4973781;28;20054;-70
2021/11/05 07:01:44;;;;;;;97.43;35.55;;;;;;;9.21;79.70;99583.25;4971816;28;20408;-70
2021/11/05 07:04:10;;;;;;;86.18;34.72;;;;;;;9.19;79.80;99566.34;4972420;28;20511;-70
2021/11/05 07:06:44;;;;;;;90.22;34.60;;;;;;;9.19;79.70;99585.44;4972603;28;20146;-69
2021/11/05 07:09:11;;;;;;;81.30;33.45;;;;;;;9.20;79.37;99560.59;4965052;28;20045;-70
2021/11/05 07:11:36;;;;;;;82.38;33.03;;;;;;;9.23;79.31;99561.97;4970975;28;20109;-69
2021/11/05 07:14:04;;;;;;;75.93;32.75;;;;;;;9.20;79.20;99566.06;4958532;28;20066;-69
2021/11/05 07:16:32;;;;;;;75.53;33.72;;;;;;;9.23;79.40;99559.25;4970950;28;20121;-70
2021/11/05 07:18:58;;;;;;;78.07;31.77;;;;;;;9.19;79.23;99569.06;4972485;28;20458;-70
2021/11/05 07:21:24;;;;;;;83.20;33.40;;;;;;;9.20;79.36;99549.69;4977693;28;20114;-69
2021/11/05 07:23:50;;;;;;;80.35;33.03;;;;;;;9.24;79.20;99549.19;4971482;28;20047;-69
2021/11/05 07:26:17;;;;;;;93.47;32.67;;;;;;;9.24;78.99;99555.44;4948300;28;20129;-70
2021/11/05 07:28:43;;;;;;;85.40;33.03;;;;;;;9.22;79.17;99547.53;4972185;28;20121;-70
2021/11/05 07:31:10;;;;;;;79.95;32.95;;;;;;;9.24;78.96;99532.81;4969886;28;20154;-68
2021/11/05 07:33:36;;;;;;;75.90;32.40;;;;;;;9.23;78.96;99545.63;4972605;28;20054;-69
2021/11/05 07:36:03;;;;;;;80.47;33.58;;;;;;;9.23;78.98;99526.50;4955546;28;20038;-70
2021/11/05 07:38:29;;;;;;;75.25;32.00;;;;;;;9.27;78.71;99540.44;4969368;28;20516;-70
2021/11/05 07:40:55;;;;;;;83.18;33.33;;;;;;;9.30;78.74;99556.25;4975184;28;20042;-70
2021/11/05 07:43:22;;;;;;;83.85;32.08;;;;;;;9.27;78.73;99521.34;4937039;28;20551;-70
2021/11/05 07:45:48;;;;;;;76.90;31.17;;;;;;;9.30;78.51;99523.50;4950606;28;20443;-70
2021/11/05 07:48:15;;;;;;;71.30;31.98;;;;;;;9.30;78.67;99529.81;4952369;28;20727;-70
2021/11/05 07:50:41;;;;;;;92.43;36.58;;;;;;;9.31;78.53;99526.00;4969617;28;20047;-69
2021/11/05 07:53:07;;;;;;;79.13;32.17;;;;;;;9.31;78.45;99528.72;4970421;28;20097;-69
2021/11/05 07:55:33;;;;;;;75.97;30.65;;;;;;;9.32;78.38;99505.78;4924109;28;20147;-69
2021/11/05 07:58:00;;;;;;;68.30;30.27;;;;;;;9.32;78.06;99497.59;4969861;28;20116;-69
2021/11/05 08:00:27;;;;;;;71.78;29.73;;;;;;;9.33;77.85;99501.13;4957806;28;20046;-70
2021/11/05 08:02:53;;;;;;;69.78;29.67;;;;;;;9.37;77.95;99496.78;4981789;28;20050;-70
2021/11/05 08:05:21;;;;;;;66.68;28.23;;;;;;;9.36;77.41;99489.66;4968574;28;20045;-70
2021/11/05 08:07:47;;;;;;;;;;;;;;;9.38;77.32;99509.34;4967760;28;20050;-70
2021/11/05 08:10:19;;;;;;;59.38;27.02;;;;;;;9.38;76.95;99501.16;4963437;28;19930;-69
2021/11/05 08:12:46;;;;;;;67.28;29.17;;;;;;;9.36;76.99;99492.41;4965000;28;20361;-69
2021/11/05 08:15:12;;;;;;;64.57;28.95;;;;;;;9.38;76.99;99492.13;4957156;28;20609;-69
2021/11/05 08:17:38;;;;;;;63.17;27.92;;;;;;;9.40;76.93;99488.06;4981202;28;20050;-68
2021/11/05 08:20:05;;;;;;;66.47;28.77;;;;;;;9.37;77.18;99491.34;4984850;28;20050;-73
2021/11/05 08:22:34;;;;;;;75.65;30.10;;;;;;;9.41;77.12;99481.50;4972827;28;20042;-73
2021/11/05 08:25:01;;;;;;;74.95;29.63;;;;;;;9.40;76.96;99503.59;4955185;28;20071;-73
2021/11/05 08:27:28;;;;;;;77.30;29.83;;;;;;;9.40;76.97;99477.13;4970889;28;20076;-73
2021/11/05 08:29:55;;;;;;;60.88;28.90;;;;;;;9.40;77.12;99477.13;4971607;28;20097;-73
2021/11/05 08:32:21;;;;;;;73.32;30.60;;;;;;;9.40;77.02;99468.94;4973255;28;20503;-72
2021/11/05 08:34:48;;;;;;;93.10;31.07;;;;;;;9.42;77.32;99476.84;4971286;28;20051;-74
2021/11/05 08:37:14;;;;;;;89.32;33.95;;;;;;;9.41;77.48;99472.47;4940783;28;20051;-73
2021/11/05 08:39:42;;;;;;;71.47;30.48;;;;;;;9.37;77.55;99461.31;4954980;28;20046;-73
2021/11/05 08:42:08;;;;;;;;;;;;;;;9.36;77.67;99446.00;4971478;28;20070;-73
2021/11/05 08:44:34;;;;;;;75.25;29.67;;;;;;;9.34;77.62;99459.13;4945678;29;19926;-73
2021/11/05 08:47:00;;;;;;;65.13;30.15;;;;;;;9.33;77.85;99471.97;4960103;28;20129;-73
2021/11/05 08:49:27;;;;;;;70.03;29.95;;;;;;;9.30;77.64;99474.41;4972426;28;20051;-73
2021/11/05 08:51:54;;;;;;;75.00;30.60;;;;;;;9.34;77.49;99459.13;4963903;28;20051;-73
2021/11/05 08:54:20;;;;;;;69.45;29.40;;;;;;;9.37;77.27;99472.22;4951197;29;20047;-73
2021/11/05 08:56:48;;;;;;;67.18;31.15;;;;;;;9.32;77.44;99464.03;4964956;28;20125;-73
2021/11/05 08:59:14;;;;;;;;;;;;;;;9.34;77.28;99465.41;4965790;28;20072;-73
2021/11/05 09:01:41;;;;;;;73.47;29.45;;;;;;;9.38;77.07;99454.78;4966594;28;19929;-73
2021/11/05 09:04:09;;;;;;;61.38;26.80;;;;;;;9.40;76.94;99470.84;4966618;28;20043;-73
2021/11/05 09:06:35;;;;;;;61.33;28.90;;;;;;;9.43;76.81;99460.22;4969377;28;20051;-73
2021/11/05 09:09:01;;;;;;;61.03;26.30;;;;;;;9.41;76.80;99462.41;4972493;28;20043;-73
2021/11/05 09:11:29;;;;;;;58.65;27.30;;;;;;;9.40;76.67;99470.84;4972088;28;20061;-73
2021/11/05 09:13:57;;;;;;;61.22;26.52;;;;;;;9.41;76.72;99472.47;4969477;28;20051;-73
2021/11/05 09:16:24;;;;;;;54.15;26.10;;;;;;;9.40;76.60;99477.13;4974068;28;20130;-73
2021/11/05 09:18:50;;;;;;;;;;;;;;;9.46;76.40;99472.50;4965674;28;20140;-73
2021/11/05 09:21:16;;;;;;;56.83;26.13;;;;;;;9.39;76.39;99450.13;4976973;28;19968;-73
2021/11/05 09:23:42;;;;;;;59.05;27.17;;;;;;;9.44;76.58;99440.00;4971507;28;20043;-73
2021/11/05 09:26:08;;;;;;;55.72;26.42;;;;;;;9.44;76.33;99450.94;4975229;28;20062;-73
2021/11/05 09:28:34;;;;;;;55.30;26.17;;;;;;;9.38;76.29;99434.84;4974314;28;20058;-73
2021/11/05 09:31:03;;;;;;;53.50;24.23;;;;;;;9.46;76.46;99426.91;4973758;28;20542;-72
2021/11/05 09:33:29;;;;;;;48.42;24.17;;;;;;;9.45;76.50;99436.19;4955154;28;20065;-73
2021/11/05 09:35:55;;;;;;;59.75;25.38;;;;;;;9.45;76.48;99428.00;4973687;28;20065;-73
2021/11/05 09:38:22;;;;;;;50.25;24.55;;;;;;;9.50;76.13;99430.72;4966460;28;20507;-77
2021/11/05 09:40:51;;;;;;;57.45;24.23;;;;;;;9.49;76.36;99429.06;4973267;28;20066;-73
2021/11/05 09:43:18;;;;;;;56.30;25.73;;;;;;;9.54;76.25;99428.25;4976499;28;20069;-73
2021/11/05 09:45:44;;;;;;;48.30;23.40;;;;;;;9.54;76.21;99427.44;4974732;28;20094;-73
2021/11/05 09:48:13;;;;;;;54.13;24.50;;;;;;;9.52;76.38;99433.16;4972503;28;20141;-73
2021/11/05 09:50:39;;;;;;;53.65;25.08;;;;;;;9.56;76.53;99428.78;4973120;28;20109;-73
2021/11/05 09:53:06;;;;;;;56.53;25.80;;;;;;;9.53;76.77;99412.97;4938506;28;20102;-73
2021/11/05 09:55:34;;;;;;;56.22;26.83;;;;;;;9.54;77.00;99411.06;4971032;28;20042;-73
2021/11/05 09:58:00;;;;;;;52.33;24.45;;;;;;;9.54;76.98;99420.06;4974438;28;20138;-73
2021/11/05 10:00:28;;;;;;;53.88;24.65;;;;;;;9.52;77.11;99405.88;4969781;28;20226;-73
2021/11/05 10:02:55;;;;;;;51.67;24.23;;;;;;;9.54;77.18;99411.88;4937866;28;20050;-72
2021/11/05 10:05:22;;;;;;;52.80;24.52;;;;;;;9.57;76.91;99405.84;4974438;28;20082;-73
2021/11/05 10:07:50;;;;;;;59.40;25.08;;;;;;;9.58;76.74;99393.03;4968163;28;20054;-73
2021/11/05 10:10:24;;;;;;;59.83;25.27;;;;;;;9.61;76.80;99408.84;4955349;28;20069;-72
2021/11/05 10:13:01;;;;;;;57.28;26.50;;;;;;;9.63;76.86;99387.56;4938480;28;20046;-71
2021/11/05 10:15:36;;;;;;;58.08;26.77;;;;;;;9.65;76.79;99378.00;4962233;28;20090;-71
2021/11/05 10:18:11;;;;;;;58.85;26.05;;;;;;;9.60;76.60;99363.53;4974047;28;20051;-73
2021/11/05 10:20:40;;;;;;;63.47;27.30;;;;;;;9.64;76.45;99357.25;4954270;28;20145;-75
2021/11/05 10:23:06;;;;;;;59.00;27.15;;;;;;;9.56;76.35;99332.47;4973232;28;20050;-77
2021/11/05 10:25:37;;;;;;;64.93;27.40;;;;;;;9.73;76.45;99349.31;4925491;28;20046;-76
2021/11/05 10:28:15;;;;;;;68.78;26.80;;;;;;;9.71;76.39;99337.00;4960517;28;20046;-77
2021/11/05 10:31:00;;;;;;;59.25;26.85;;;;;;;9.77;76.23;99347.63;4967310;28;20046;-77
2021/11/05 10:33:30;;;;;;;60.65;27.63;;;;;;;9.78;76.23;99338.34;4968413;28;20078;-79
2021/11/05 10:36:03;;;;;;;68.40;29.10;;;;;;;9.76;76.28;99323.38;4972322;28;20051;-75
2021/11/05 10:38:41;;;;;;;64.18;28.95;;;;;;;9.70;76.53;99310.81;4965926;28;20046;-80
2021/11/05 10:41:09;;;;;;;77.80;31.65;;;;;;;9.80;76.48;99329.88;4970461;28;20400;-74
2021/11/05 10:43:42;;;;;;;75.95;31.15;;;;;;;9.84;76.68;99321.97;4968682;28;20051;-76
2021/11/05 10:46:21;;;;;;;88.07;32.03;;;;;;;9.83;76.72;99315.66;4969849;28;20435;-77
2021/11/05 10:48:48;;;;;;;81.72;31.98;;;;;;;9.87;76.74;99315.94;4955170;28;20258;-77
2021/11/05 10:51:15;;;;;;;84.90;33.90;;;;;;;9.89;76.95;99294.63;4970396;28;20134;-79
2021/11/05 10:53:42;;;;;;;;;;;;;;;9.89;76.99;99308.25;4968250;28;20052;-75
2021/11/05 10:56:12;;;;;;;93.43;31.25;;;;;;;9.90;76.73;99307.16;4970857;28;19929;-80
2021/11/05 10:58:43;;;;;;;90.65;33.33;;;;;;;9.88;76.87;99282.06;4953525;28;20051;-78
2021/11/05 11:01:11;;;;;;;91.82;34.42;;;;;;;9.93;76.92;99299.22;4968202;28;20054;-80
2021/11/05 11:03:41;;;;;;;85.97;34.42;;;;;;;9.93;77.17;99290.22;4932908;29;20047;-75
2021/11/05 11:06:10;;;;;;;92.90;33.17;;;;;;;9.96;76.95;99294.28;4961792;28;20051;-72
2021/11/05 11:08:41;;;;;;;78.43;31.15;;;;;;;9.90;77.05;99286.13;4967833;28;20078;-76
2021/11/05 11:11:23;;;;;;;84.93;32.40;;;;;;;9.95;77.18;99288.00;4953347;28;20060;-69
2021/11/05 11:13:51;;;;;;;77.68;31.70;;;;;;;10.03;77.05;99301.06;4972339;28;20209;-69
2021/11/05 11:16:21;;;;;;;76.47;33.25;;;;;;;10.03;77.29;99303.81;4978464;28;20443;-69
2021/11/05 11:18:51;;;;;;;76.65;31.73;;;;;;;10.06;77.06;99305.13;4972078;28;20054;-70
2021/11/05 11:21:18;;;;;;;84.10;31.50;;;;;;;10.01;77.09;99281.44;4965901;28;20499;-69
2021/11/05 11:23:46;;;;;;;78.85;32.28;;;;;;;10.05;77.29;99287.13;4965227;28;20551;-71
2021/11/05 11:26:15;;;;;;;81.95;32.47;;;;;;;10.09;77.01;99266.34;4952866;28;20046;-71